createdAt,value
2022-11-07T00:04:35.393Z,8.97
2022-11-07T00:14:36.785Z,9.09
2022-11-07T00:24:38.160Z,9.05
2022-11-07T00:34:39.527Z,9.09
2022-11-07T00:44:40.967Z,9.11
2022-11-07T00:54:42.398Z,9.15
2022-11-07T01:05:02.615Z,9.23
2022-11-07T01:15:05.129Z,9.31
2022-11-07T01:25:06.953Z,9.34
2022-11-07T01:35:08.401Z,9.40
2022-11-07T01:45:09.763Z,9.46
2022-11-07T01:55:11.194Z,9.51
2022-11-07T02:05:12.552Z,9.60
2022-11-07T02:15:13.889Z,9.70
2022-11-07T02:25:15.144Z,9.80
2022-11-07T02:35:16.534Z,9.86
2022-11-07T02:45:17.892Z,9.90
2022-11-07T02:55:19.282Z,9.80
2022-11-07T03:05:20.725Z,9.81
2022-11-07T03:15:21.982Z,9.86
2022-11-07T03:25:23.377Z,9.90
2022-11-07T03:35:24.777Z,9.93
2022-11-07T03:45:26.037Z,9.91
2022-11-07T03:55:27.261Z,9.89
2022-11-07T04:05:28.633Z,10.00
2022-11-07T04:15:48.860Z,9.93
2022-11-07T04:26:08.774Z,9.90
2022-11-07T04:36:10.192Z,9.98
2022-11-07T04:46:11.543Z,9.98
2022-11-07T04:56:12.904Z,9.98
2022-11-07T05:06:14.294Z,9.98
2022-11-07T05:16:17.258Z,10.00
2022-11-07T05:26:18.872Z,9.98
2022-11-07T05:36:20.230Z,9.98
2022-11-07T05:46:21.627Z,9.98
2022-11-07T05:56:22.991Z,10.09
2022-11-07T06:06:24.360Z,9.99
2022-11-07T06:16:25.754Z,10.05
2022-11-07T06:26:27.158Z,10.03
2022-11-07T06:36:28.538Z,10.14
2022-11-07T06:46:29.872Z,10.26
2022-11-07T06:56:31.485Z,10.35
2022-11-07T07:06:32.880Z,10.44
2022-11-07T07:16:34.239Z,10.48
2022-11-07T07:26:35.622Z,10.67
2022-11-07T07:36:36.984Z,10.87
2022-11-07T07:46:38.376Z,10.95
2022-11-07T07:56:39.676Z,10.97
2022-11-07T08:06:40.974Z,11.13
2022-11-07T08:16:42.326Z,11.26
2022-11-07T08:26:44.305Z,11.53
2022-11-07T08:36:45.814Z,11.65
2022-11-07T08:46:47.158Z,11.82
2022-11-07T08:56:48.459Z,12.27
2022-11-07T09:06:49.761Z,12.63
2022-11-07T09:16:51.155Z,12.92
2022-11-07T09:26:52.541Z,12.89
2022-11-07T09:36:53.920Z,13.15
2022-11-07T09:46:55.272Z,13.32
2022-11-07T09:56:58.011Z,13.28
2022-11-07T10:06:59.355Z,13.16
2022-11-07T10:17:00.776Z,13.20
2022-11-07T10:27:02.350Z,13.52
2022-11-07T10:37:03.712Z,13.39
2022-11-07T10:47:05.887Z,13.58
2022-11-07T10:57:07.334Z,13.85
2022-11-07T11:07:08.826Z,13.93
2022-11-07T11:17:10.237Z,13.90
2022-11-07T11:27:12.060Z,14.22
2022-11-07T11:37:13.417Z,14.33
2022-11-07T11:47:14.805Z,14.70
2022-11-07T11:57:16.236Z,14.77
2022-11-07T12:07:17.643Z,14.97
2022-11-07T12:17:19.002Z,14.99
2022-11-07T12:27:25.562Z,15.10
2022-11-07T12:37:28.297Z,15.16
2022-11-07T12:47:29.629Z,14.97
2022-11-07T12:57:31.001Z,14.88
2022-11-07T13:07:32.263Z,14.72
2022-11-07T13:17:33.623Z,14.66
2022-11-07T13:27:35.153Z,14.52
2022-11-07T13:37:36.416Z,14.46
2022-11-07T13:47:37.798Z,14.40
2022-11-07T13:57:39.158Z,14.46
2022-11-07T14:07:40.416Z,14.34
2022-11-07T14:17:41.705Z,14.42
2022-11-07T14:27:43.067Z,14.35
2022-11-07T14:37:44.778Z,14.29
2022-11-07T14:47:46.163Z,14.31
2022-11-07T14:57:47.422Z,14.30
2022-11-07T15:07:48.798Z,14.08
2022-11-07T15:17:50.180Z,13.96
2022-11-07T15:27:51.612Z,13.87
2022-11-07T15:37:53.341Z,13.81
2022-11-07T15:47:55.248Z,13.73
2022-11-07T15:57:57.397Z,13.78
2022-11-07T16:07:59.539Z,13.54
2022-11-07T16:18:01.553Z,13.29
2022-11-07T16:28:03.661Z,13.13
2022-11-07T16:38:05.028Z,12.99
2022-11-07T16:48:06.469Z,13.03
2022-11-07T16:58:07.818Z,13.03
2022-11-07T17:08:09.272Z,12.96
2022-11-07T17:18:10.631Z,12.81
2022-11-07T17:28:12.153Z,12.72
2022-11-07T17:38:14.496Z,12.64
2022-11-07T17:48:16.332Z,12.58
2022-11-07T17:58:17.935Z,12.49
2022-11-07T18:08:45.907Z,12.48
2022-11-07T18:18:40.646Z,12.37
2022-11-07T18:28:42.868Z,12.22
2022-11-07T18:38:44.892Z,12.11
2022-11-07T18:48:46.163Z,11.82
2022-11-07T18:58:47.560Z,11.55
2022-11-07T19:08:49.139Z,11.38
2022-11-07T19:18:50.544Z,11.01
2022-11-07T19:28:54.184Z,10.74
2022-11-07T19:38:55.511Z,10.62
2022-11-07T19:48:57.207Z,10.47
2022-11-07T19:58:58.635Z,10.30
2022-11-07T20:08:59.990Z,10.41
2022-11-07T20:19:01.279Z,10.55
2022-11-07T20:29:02.761Z,10.68
2022-11-07T20:39:04.123Z,10.78
2022-11-07T20:49:05.485Z,10.93
2022-11-07T20:59:07.120Z,11.08
2022-11-07T21:09:08.422Z,11.15
2022-11-07T21:19:09.796Z,11.12
2022-11-07T21:29:11.174Z,10.91
2022-11-07T21:39:14.316Z,10.73
2022-11-07T21:49:15.551Z,10.59
2022-11-07T21:59:18.759Z,10.48
2022-11-07T22:09:21.056Z,10.45
2022-11-07T22:19:22.414Z,10.45
2022-11-07T22:29:23.899Z,10.29
2022-11-07T22:39:25.299Z,9.94
2022-11-07T22:49:26.622Z,9.61
2022-11-07T22:59:27.999Z,9.38
2022-11-07T23:09:29.346Z,9.16
2022-11-07T23:19:30.750Z,9.00
2022-11-07T23:29:32.169Z,8.91
2022-11-07T23:39:33.552Z,8.66
2022-11-07T23:49:53.796Z,8.52
